• Join FlightAware (Why Join?)
  • Login
  • US Flag 
Gobble Gobble! 
09:55AM EST


 

Airport Tracker/Info


-or-


 

Live Flight TrackerFlight Track Log ✈ LXJ342 ✈ 25-Jun-2013 ✈ KSFO - KACK

Flight Track Log - Related Links

Times and Time Zones

All times are in EDT time to prevent confusion due to time zone crossing. See the LXJ342 flight status page for this flight to view local times or setup timezone preferences in your user account.

Time Position Orientation Groundspeed Altitude Reporting Facility
EDT Latitude Longitude Course Direction KTS MPH feet Rate Location/Type
02:38PM 37.5847 -122.2392 17° North 240 276 4,500  Level Oakland Center
02:39PM 37.5617 -122.1428 107° East 272 313 7,100 2,340 Climbing Oakland Center
02:40PM 37.5894 -122.0547 68° East 306 352 9,300 2,100 Climbing Oakland Center
02:41PM 37.6753 -122.0044 25° Northeast 337 388 11,500 2,280 Climbing Oakland Center
02:42PM 37.9475 -121.6953 15° North  Level FlightAware Approximate
02:42PM 37.7661 -121.9506 25° Northeast 359 413 14,000  Level Oakland Center
02:43PM 38.0770 -121.6625 17° North  Level FlightAware Approximate
02:43PM 37.8839 -121.8814 25° Northeast 390 449 16,400  Level Oakland Center
02:44PM 37.9867 -121.8222 24° Northeast 406 467 18,400 1,920 Climbing Oakland Center
02:45PM 38.0919 -121.7600 25° Northeast 417 480 20,400 1,800 Climbing Oakland Center
02:46PM 38.1981 -121.6986 24° Northeast 420 483 22,100 1,560 Climbing Oakland Center
02:47PM 38.3053 -121.6344 25° Northeast 427 491 23,600 1,320 Climbing Oakland Center
02:48PM 38.4156 -121.5667 26° Northeast 438 504 24,900 1,080 Climbing Oakland Center
02:49PM 38.5025 -121.4456 47° Northeast 481 554 25,800 900 Climbing Oakland Center
02:50PM 38.5831 -121.3103 53° Northeast 485 558 26,800 1,020 Climbing Oakland Center
02:51PM 38.6817 -121.1436 53° Northeast 493 567 28,000 1,020 Climbing Oakland Center
02:52PM 38.7550 -121.0178 53° Northeast 494 568 28,900 840 Climbing Oakland Center
02:53PM 38.8369 -120.8739 54° Northeast 498 573 29,800 900 Climbing Oakland Center
02:54PM 38.9206 -120.7300 53° Northeast 501 577 30,800 960 Climbing Oakland Center
02:55PM 39.0042 -120.5850 53° Northeast 504 580 31,800 1,020 Climbing Oakland Center
02:56PM 39.1033 -120.4122 53° Northeast 501 577 32,900 780 Climbing Oakland Center
02:57PM 39.1861 -120.2683 53° Northeast 499 574 33,500 480 Climbing Oakland Center
02:58PM 39.2719 -120.1169 54° Northeast 501 577 34,000 480 Climbing Oakland Center
02:59PM 39.3597 -119.9697 52° Northeast 512 589 34,500 480 Climbing Oakland Center
03:00PM 39.4422 -119.8200 54° Northeast 511 588 35,000 240 Climbing Oakland Center
03:01PM 39.5275 -119.6686 54° Northeast 517 595 35,000  Level Oakland Center
03:02PM 39.6117 -119.5158 54° Northeast 519 597 35,000  Level Oakland Center
03:03PM 39.6978 -119.3611 54° Northeast 522 601 35,000  Level Oakland Center
03:04PM 39.7853 -119.2036 54° Northeast 530 610 35,000  Level Oakland Center
03:05PM 39.8733 -119.0461 54° Northeast 532 612 35,000  Level Oakland Center
03:06PM 39.9603 -118.8847 55° Northeast 536 617 35,000  Level Oakland Center
03:07PM 40.0306 -118.7106 62° Northeast 548 631 35,000  Level Oakland Center
03:08PM 40.0856 -118.5267 69° East 542 624 35,000  Level Oakland Center
03:09PM 40.1406 -118.3442 68° East 539 620 35,000 120 Level Oakland Center
03:10PM 40.1939 -118.1597 69° East 540 621 35,300 360 Climbing Oakland Center
03:11PM 40.2475 -117.9694 70° East 534 615 35,800 480 Climbing Salt Lake Center
03:12PM 40.2836 -117.7903 75° East 533 613 36,300 480 Climbing Salt Lake Center
03:13PM 40.3256 -117.5831 75° East 527 606 36,800 300 Climbing Salt Lake Center
03:14PM 40.3614 -117.4058 75° East 525 604 37,000 60 Climbing Salt Lake Center
03:15PM 40.4033 -117.1964 75° East 530 610 37,000  Level Salt Lake Center
03:16PM 40.4406 -117.0150 75° East 533 613 37,000  Level Salt Lake Center
03:17PM 40.4772 -116.8136 76° East 543 625 37,000  Level Salt Lake Center
03:18PM 40.5181 -116.6039 76° East 541 623 37,000  Level Salt Lake Center
03:19PM 40.5525 -116.4211 76° East 537 618 37,000  Level Salt Lake Center
03:20PM 40.5858 -116.2397 76° East 533 613 37,000  Level Salt Lake Center
03:21PM 40.6275 -116.0272 75° East 536 617 37,000  Level Salt Lake Center
03:23PM 40.6586 -115.8453 77° East 534 615 37,000  Level Salt Lake Center
03:24PM 40.6958 -115.6328 77° East 533 613 37,000  Level Salt Lake Center
03:25PM 40.7308 -115.4519 76° East 532 612 37,000  Level Salt Lake Center
03:26PM 40.7681 -115.2397 77° East 533 613 37,000  Level Salt Lake Center
03:27PM 40.8003 -115.0581 77° East 532 612 37,000  Level Salt Lake Center
03:28PM 40.8381 -114.8450 77° East 534 615 37,000  Level Salt Lake Center
03:29PM 40.8731 -114.6636 76° East 534 615 37,000  Level Salt Lake Center
03:30PM 40.9042 -114.4803 77° East 534 615 37,000  Level Salt Lake Center
03:31PM 40.9361 -114.2853 78° East 531 611 37,000  Level Salt Lake Center
03:32PM 40.9675 -114.0950 78° East 531 611 37,000  Level Salt Lake Center
03:33PM 41.0058 -113.8683 77° East 528 608 37,000  Level Salt Lake Center
03:34PM 41.0364 -113.6783 78° East 530 610 37,000  Level Salt Lake Center
03:35PM 41.0658 -113.4864 78° East 532 612 37,000  Level Salt Lake Center
03:36PM 41.0961 -113.2961 78° East 530 610 37,000  Level Salt Lake Center
03:37PM 41.1256 -113.1036 78° East 533 613 37,000  Level Salt Lake Center
03:38PM 41.1564 -112.9131 78° East 530 610 37,000  Level Salt Lake Center
03:39PM 41.1858 -112.7225 78° East 529 609 37,000  Level Salt Lake Center
03:40PM 41.2208 -112.4953 78° East 524 603 37,000  Level Salt Lake Center
03:41PM 41.2494 -112.3042 79° East 525 604 37,000  Level Salt Lake Center
03:42PM 41.2778 -112.1131 79° East 524 603 37,000  Level Salt Lake Center
03:43PM 41.3058 -111.9197 79° East 525 604 37,000  Level Salt Lake Center
03:44PM 41.3344 -111.7272 79° East 524 603 37,000  Level Salt Lake Center
03:45PM 41.3628 -111.5353 79° East 524 603 37,000  Level Salt Lake Center
03:46PM 41.3897 -111.3422 79° East 526 605 37,000  Level Salt Lake Center
03:47PM 41.4156 -111.1508 80° East 525 604 37,000  Level Salt Lake Center
03:48PM 41.4464 -110.9303 79° East 525 604 37,000  Level Salt Lake Center
03:49PM 41.4722 -110.7444 79° East 532 612 37,000  Level Salt Lake Center
03:50PM 41.4958 -110.5606 80° East 528 608 37,000  Level Salt Lake Center
03:51PM 41.5258 -110.3453 79° East 528 608 37,000  Level Salt Lake Center
03:52PM 41.5503 -110.1600 80° East 530 610 37,000  Level Salt Lake Center
03:53PM 41.5781 -109.9433 80° East 531 611 37,000  Level Salt Lake Center
03:54PM 41.6011 -109.7578 81° East 529 609 37,000  Level Salt Lake Center
03:55PM 41.6253 -109.5714 80° East 530 610 37,000  Level Salt Lake Center
03:56PM 41.6531 -109.3531 80° East 530 610 37,000  Level Salt Lake Center
03:58PM 41.6767 -109.1658 80° East 529 609 37,000  Level Salt Lake Center
03:59PM 41.7028 -108.9464 81° East 528 608 37,000  Level Salt Lake Center
04:00PM 41.7244 -108.7606 81° East 525 604 37,000  Level Salt Lake Center
04:01PM 41.7467 -108.5750 81° East 527 606 37,000  Level Salt Lake Center
04:02PM 41.7708 -108.3597 81° East 526 605 37,000  Level Salt Lake Center
04:03PM 41.7917 -108.1761 81° East 522 601 37,000  Level Salt Lake Center
04:04PM 41.8158 -107.9586 81° East 528 608 37,000  Level Salt Lake Center
04:05PM 41.8392 -107.7428 82° East 524 603 37,000  Level Denver Center
04:06PM 41.8556 -107.5897 82° East 525 604 37,000  Level Salt Lake Center
04:07PM 41.8783 -107.3728 82° East 528 608 37,000  Level Salt Lake Center
04:08PM 41.8975 -107.1886 82° East 525 604 37,000  Level Salt Lake Center
04:09PM 41.9206 -106.9731 82° East 524 603 37,000  Level Salt Lake Center
04:10PM 41.9383 -106.7861 83° East 528 608 37,000  Level Salt Lake Center
04:11PM 41.9594 -106.5664 83° East 529 609 37,000  Level Salt Lake Center
04:12PM 41.9772 -106.3803 83° East 528 608 37,000  Level Salt Lake Center
04:13PM 41.9958 -106.1947 82° East 525 604 37,000  Level Salt Lake Center
04:13PM 42.0008 -106.1317 84° East 527 606 37,000  Level Denver Center
04:15PM 42.0322 -105.7911 83° East 527 606 37,000  Level Salt Lake Center
04:16PM 42.0450 -105.6697 82° East 519 597 37,000  Level Denver Center
04:17PM 42.0628 -105.4839 83° East 523 602 37,000  Level Denver Center
04:18PM 42.0814 -105.2669 83° East 524 603 37,000  Level Denver Center
04:19PM 42.0947 -105.0806 84° East 525 604 37,000  Level Denver Center
04:20PM 42.1100 -104.8944 84° East 526 605 37,000  Level Denver Center
04:21PM 42.1281 -104.6775 84° East 525 604 37,000  Level Denver Center
04:22PM 42.1422 -104.4939 84° East 522 601 37,000 120 Level Denver Center
04:23PM 42.1611 -104.2481 84° East 520 598 37,400 480 Climbing Denver Center
04:24PM 42.1775 -104.0364 84° East 513 590 38,000 480 Climbing Denver Center
04:25PM 42.1911 -103.8533 84° East 514 592 38,400 480 Climbing Denver Center
04:26PM 42.2069 -103.6431 84° East 508 585 39,000 480 Climbing Denver Center
04:27PM 42.2192 -103.4644 85° East 503 579 39,500 360 Climbing Denver Center
04:28PM 42.2306 -103.3158 84° East 502 578 39,800 360 Climbing Denver Center
04:29PM 42.2467 -103.0811 85° East 496 571 40,300 300 Climbing Denver Center
04:30PM 42.2550 -102.9347 86° East 493 567 40,500 180 Climbing Denver Center
04:31PM 42.2692 -102.7014 85° East 492 566 40,700 180 Climbing Denver Center
04:32PM 42.2817 -102.5264 84° East 490 564 40,900 120 Climbing Denver Center
04:33PM 42.2944 -102.3186 85° East 496 571 41,000  Climbing Denver Center
04:34PM 42.3061 -102.1414 85° East 496 571 41,000  Level Denver Center
04:35PM 42.3147 -101.9633 86° East 497 572 41,000  Level Denver Center
04:36PM 42.3275 -101.7542 85° East 498 573 41,000  Level Denver Center
04:37PM 42.3372 -101.5739 86° East 500 575 41,000  Level Denver Center
04:38PM 42.3489 -101.3625 86° East 500 575 41,000  Level Denver Center
04:39PM 42.3578 -101.1828 86° East 500 575 41,000  Level Denver Center
04:40PM 42.3647 -101.0350 86° East 495 570 41,000  Level Denver Center
04:41PM 42.3756 -100.7986 86° East 494 568 41,000  Level Denver Center
04:42PM 42.3833 -100.6231 87° East 490 564 41,000  Level Denver Center
04:43PM 42.3922 -100.4192 87° East 485 558 41,000  Level Denver Center
04:45PM 42.3997 -100.2431 87° East 488 562 41,000  Level Denver Center
04:46PM 42.4089 -100.0386 86° East 487 560 41,000  Level Denver Center
04:47PM 42.4153 -99.8636 87° East 487 560 41,000  Level Denver Center
04:48PM 42.4222 -99.6586 87° East 488 562 41,000  Level Denver Center
04:49PM 42.4289 -99.4978 87° East 491 565 41,000  Level Denver Center
04:50PM 42.4381 -99.2392 87° East 493 567 41,000  Level Minneapolis Center
04:51PM 42.4442 -99.0525 87° East 495 570 41,000  Level Minneapolis Center
04:52PM 42.4497 -98.8661 88° East 495 570 41,000  Level Minneapolis Center
04:53PM 42.4558 -98.6394 88° East 497 572 41,000  Level Minneapolis Center
04:54PM 42.4606 -98.4536 88° East 496 571 41,000  Level Minneapolis Center
04:55PM 42.4661 -98.2675 88° East 494 568 41,000  Level Minneapolis Center
04:56PM 42.4692 -98.0775 89° East 499 574 41,000  Level Minneapolis Center
04:57PM 42.4744 -97.8922 88° East 496 571 41,000  Level Minneapolis Center
04:58PM 42.4778 -97.7061 89° East 500 575 41,000  Level Minneapolis Center
04:59PM 42.4825 -97.4831 88° East 496 571 41,000  Level Minneapolis Center
05:01PM 42.4850 -97.2956 89° East 497 572 41,000  Level Minneapolis Center
05:02PM 42.4875 -97.0725 89° East 495 570 41,000  Level Minneapolis Center
05:03PM 42.4903 -96.8875 89° East 491 565 41,000  Level Minneapolis Center
05:04PM 42.4928 -96.6997 89° East 495 570 41,000  Level Minneapolis Center
05:05PM 42.4939 -96.5150 89° East 492 566 41,000  Level Minneapolis Center
05:06PM 42.4958 -96.3300 89° East 489 563 41,000  Level Minneapolis Center
05:07PM 42.4972 -96.1083 89° East 488 562 41,000  Level Minneapolis Center
05:08PM 42.4983 -95.9214 89° East 493 567 41,000  Level Minneapolis Center
05:09PM 42.4983 -95.7356 90° East 494 568 41,000  Level Minneapolis Center
05:10PM 42.4986 -95.5519 90° East 489 563 41,000  Level Minneapolis Center
05:11PM 42.4989 -95.3661 90° East 492 566 41,000  Level Minneapolis Center
05:12PM 42.4981 -95.1814 90° East 490 564 41,000  Level Minneapolis Center
05:13PM 42.4981 -94.9953 90° East 491 565 41,000  Level Minneapolis Center
05:14PM 42.4972 -94.7736 90° East 490 564 41,000  Level Minneapolis Center
05:15PM 42.4947 -94.5875 91° East 493 567 41,000  Level Minneapolis Center
05:16PM 42.4936 -94.4219 90° East 493 567 41,000  Level Minneapolis Center
05:17PM 42.4917 -94.2014 91° East 492 566 41,000  Level Minneapolis Center
05:18PM 42.4892 -94.0183 91° East 491 565 41,000  Level Minneapolis Center
05:19PM 42.4867 -93.8350 91° East 492 566 41,000  Level Minneapolis Center
05:20PM 42.4842 -93.6503 91° East 494 568 41,000  Level Minneapolis Center
05:21PM 42.4811 -93.4658 91° East 493 567 41,000  Level Minneapolis Center
05:22PM 42.4767 -93.2458 91° East 492 566 41,000  Level Minneapolis Center
05:23PM 42.4747 -93.0989 91° East 492 566 41,000  Level Minneapolis Center
05:24PM 42.4692 -92.8792 92° East 492 566 41,000  Level Minneapolis Center
05:25PM 42.4650 -92.6961 92° East 491 565 41,000  Level Minneapolis Center
05:26PM 42.4606 -92.5117 92° East 494 568 41,000  Level Minneapolis Center
05:27PM 42.4547 -92.2911 92° East 495 570 41,000  Level Minneapolis Center
05:29PM 42.4494 -92.1061 92° East 496 571 41,000  Level Minneapolis Center
05:30PM 42.4428 -91.8831 92° East 500 575 41,000  Level Minneapolis Center
05:31PM 42.4367 -91.7350 93° East 502 578 41,000  Level Minneapolis Center
05:32PM 42.4286 -91.4739 92° East 506 582 41,000  Level Minneapolis Center
05:33PM 42.4222 -91.2872 93° East 506 582 41,000  Level Minneapolis Center
05:34PM 42.4156 -91.1017 93° East 503 579 41,000  Level Minneapolis Center
05:35PM 42.4061 -90.8439 93° East 502 578 41,000  Level Chicago Center
05:36PM 42.3958 -90.6575 94° East 503 579 41,000  Level Chicago Center
05:37PM 42.3869 -90.4719 94° East 500 575 41,000  Level Chicago Center
05:38PM 42.3769 -90.2875 94° East 498 573 41,000  Level Chicago Center
05:39PM 42.3642 -90.0658 94° East 500 575 41,000  Level Chicago Center
05:40PM 42.3531 -89.8656 94° East 499 574 41,000  Level Chicago Center
05:41PM 42.3419 -89.6786 95° East 499 574 41,000  Level Chicago Center
05:42PM 42.3303 -89.4939 95° East 495 570 41,000  Level Chicago Center
05:43PM 42.3183 -89.3078 95° East 497 572 41,000  Level Chicago Center
05:44PM 42.3131 -89.1250 92° East 496 571 41,000  Level Chicago Center
05:46PM 42.3183 -88.9078 88° East 500 575 41,000  Level Chicago Center
05:47PM 42.3242 -88.7219 88° East 488 562 41,000  Level Chicago Center
05:48PM 42.3286 -88.5369 88° East 491 565 41,000  Level Chicago Center
05:49PM 42.3336 -88.3533 88° East 499 574 41,000  Level Chicago Center
05:50PM 42.3375 -88.1706 88° East 492 566 41,000  Level Chicago Center
05:51PM 42.3431 -87.9558 88° East 491 565 41,000  Level Chicago Center
05:52PM 42.3456 -87.7714 89° East 492 566 41,000  Level Chicago Center
05:53PM 42.3503 -87.5769 88° East 491 565 41,000  Level Chicago Center
05:54PM 42.3531 -87.3925 89° East 491 565 41,000  Level Chicago Center
05:55PM 42.3617 -87.2094 86° East 490 564 41,000  Level Chicago Center
05:56PM 42.3933 -87.0300 77° East 492 566 41,000  Level Chicago Center
05:57PM 42.4247 -86.8539 76° East 488 562 41,000  Level Chicago Center
05:58PM 42.4583 -86.6683 76° East 484 557 41,000  Level Chicago Center
05:59PM 42.4867 -86.4903 78° East 486 559 41,000  Level Chicago Center
06:00PM 42.5100 -86.2792 81° East 479 551 41,000  Level Chicago Center
06:01PM 42.5208 -86.1008 85° East 481 554 41,000  Level Chicago Center
06:02PM 42.5256 -85.9211 88° East 482 555 41,000  Level Chicago Center
06:03PM 42.5422 -85.7428 83° East 484 557 41,000  Level Chicago Center
06:04PM 42.5481 -85.5264 88° East 485 558 41,000  Level Chicago Center
06:05PM 42.5433 -85.3442 92° East 485 558 41,000  Level Chicago Center
06:06PM 42.5386 -85.1628 92° East 484 557 41,000  Level Chicago Center
06:07PM 42.5319 -84.9797 93° East 487 560 41,000  Level Chicago Center
06:08PM 42.5267 -84.7958 92° East 489 563 41,000  Level Chicago Center
06:09PM 42.5481 -84.6122 81° East 496 571 41,000  Level Chicago Center
06:10PM 42.5933 -84.3989 74° East 494 568 41,000  Level Chicago Center
06:11PM 42.6314 -84.2189 74° East 497 572 41,000  Level Chicago Center
06:12PM 42.6614 -84.0369 77° East 495 570 41,000  Level Chicago Center
06:13PM 42.6583 -83.8244 91° East 486 559 41,000  Level Cleveland Center
06:14PM 42.6531 -83.6408 92° East 486 559 41,000  Level Cleveland Center
06:15PM 42.6475 -83.4542 92° East 486 559 41,000  Level Cleveland Center
06:16PM 42.6392 -83.2731 94° East 491 565 41,000  Level Cleveland Center
06:17PM 42.6308 -83.0892 93° East 486 559 41,000  Level Cleveland Center
06:18PM 42.6242 -82.9111 93° East 481 554 41,000  Level Cleveland Center
06:19PM 42.6175 -82.7275 93° East 481 554 41,000  Level Cleveland Center
06:20PM 42.6081 -82.5467 94° East 481 554 41,000  Level Cleveland Center
06:21PM 42.6022 -82.3997 93° East 481 554 41,000  Level Cleveland Center
06:22PM 42.5925 -82.2047 94° East 481 554 41,000  Level Cleveland Center
06:23PM 42.5844 -82.0242 93° East 481 554 41,000  Level Cleveland Center
06:24PM 42.5761 -81.8464 94° East 481 554 41,000  Level Cleveland Center
06:25PM 42.5658 -81.6489 94° East 474 545 41,000  Level Cleveland Center
06:26PM 42.5547 -81.4739 95° East 474 545 41,000  Level Cleveland Center
06:27PM 42.5517 -81.3131 91° East 474 545 41,000  Level Cleveland Center
06:28PM 42.5778 -81.1331 79° East 480 552 41,000  Level Cleveland Center
06:29PM 42.6014 -80.9556 80° East 480 552 41,000  Level Cleveland Center
06:30PM 42.6225 -80.7722 81° East 487 560 41,000  Level Cleveland Center
06:31PM 42.6478 -80.6000 79° East 478 550 41,000  Level Cleveland Center
06:32PM 42.6664 -80.4167 82° East 478 550 41,000  Level Cleveland Center
06:33PM 42.6908 -80.2161 81° East 483 556 41,000  Level Cleveland Center
06:34PM 42.7131 -80.0294 81° East 494 568 41,000  Level Cleveland Center
06:35PM 42.7372 -79.8453 80° East 487 560 41,000  Level Cleveland Center
06:36PM 42.7586 -79.6614 81° East 487 560 41,000  Level Cleveland Center
06:37PM 42.7781 -79.4744 82° East 487 560 41,000  Level Cleveland Center
06:38PM 42.7989 -79.2931 81° East 487 560 41,000  Level Cleveland Center
06:39PM 42.8219 -79.1114 80° East 487 560 41,000  Level Cleveland Center
06:40PM 42.8403 -78.9239 82° East 487 560 41,000  Level Cleveland Center
06:41PM 42.8603 -78.7364 82° East 487 560 41,000 -600 Level Cleveland Center
06:43PM 42.8664 -78.5495 82° East  Level FlightAware Approximate
06:43PM 42.8994 -78.3583 82° East 497 572 39,300  Level Cleveland Center
06:44PM 42.9186 -78.1678 82° East 503 579 39,000 -180 Descending Cleveland Center
06:45PM 42.9356 -77.9883 83° East 493 567 39,000  Level Cleveland Center
06:46PM 42.9561 -77.8003 81° East 493 567 39,000  Level Cleveland Center
06:47PM 42.9744 -77.6122 82° East 493 567 39,000  Level Cleveland Center
06:48PM 42.9922 -77.4211 83° East 493 567 39,000  Level Cleveland Center
06:50PM 43.0192 -77.1181 83° East 488 562 39,000  Level Boston Center
06:51PM 43.0372 -76.9292 82° East 483 556 39,000  Level Boston Center
06:52PM 43.0492 -76.7822 84° East 483 556 39,000  Level Boston Center
06:53PM 43.0706 -76.5419 83° East 488 562 39,000  Level Boston Center
06:54PM 43.0908 -76.3214 83° East 488 562 39,000  Level Boston Center
06:55PM 43.1053 -76.1375 84° East 488 562 39,000  Level Boston Center
06:56PM 43.1197 -75.9478 84° East 488 562 39,000  Level Boston Center
06:57PM 43.1336 -75.7606 84° East 488 562 39,000  Level Boston Center
06:58PM 43.1469 -75.5792 84° East 488 562 39,000  Level Boston Center
06:59PM 43.1578 -75.4089 85° East 493 567 39,000  Level Boston Center
07:00PM 43.1711 -75.2158 85° East 499 574 39,000  Level Boston Center
07:01PM 43.1881 -75.0286 83° East 499 574 39,000  Level Boston Center
07:03PM 43.2025 -74.8383 84° East 499 574 39,000  Level Boston Center
07:04PM 43.2197 -74.6139 84° East 499 574 39,000  Level Boston Center
07:05PM 43.2314 -74.4264 85° East 499 574 39,000  Level Boston Center
07:06PM 43.2428 -74.2358 85° East 499 574 39,000 -60 Level Boston Center
07:07PM 43.2539 -74.0536 85° East 494 568 38,900  Descending Boston Center
07:08PM 43.2667 -73.8686 85° East 488 562 39,000  Climbing Boston Center
07:09PM 43.2794 -73.6692 85° East 481 554 39,000  Level Boston Center
07:10PM 43.2897 -73.4897 85° East 475 547 39,000  Level Boston Center
07:11PM 43.3036 -73.3303 83° East 470 541 39,000  Level Boston Center
07:12PM 43.3153 -73.1506 85° East 470 541 39,000  Level Boston Center
07:13PM 43.3244 -72.9653 86° East 470 541 39,000  Level Boston Center
07:14PM 43.3336 -72.7769 86° East 482 555 39,000  Level Boston Center
07:15PM 43.3444 -72.5914 85° East 482 555 39,000  Level Boston Center
07:16PM 43.3528 -72.4058 86° East 482 555 39,000 -300 Level Boston Center
07:17PM 43.3631 -72.2231 86° East 482 555 38,500 -540 Descending Boston Center
07:18PM 43.3708 -72.0403 87° East 477 549 37,900 -840 Descending Boston Center
07:19PM 43.3803 -71.8175 87° East 477 549 36,700 -1,140 Descending Boston Center
07:20PM 43.3894 -71.5972 87° East 477 549 35,500 -1,140 Descending Boston Center
07:21PM 43.4000 -71.3914 86° East 482 555 34,300 -1,020 Descending Boston Center
07:22PM 43.4047 -71.2197 88° East 482 555 33,500 -720 Descending Boston Center
07:23PM 43.4169 -71.0108 85° East 490 564 32,900 -780 Descending Boston Center
07:24PM 43.4061 -70.8283 95° East 490 564 32,000 -1,320 Descending Boston Center
07:25PM 43.3125 -70.7022 136° Southeast 440 506 30,300 -1,800 Descending Boston Center
07:26PM 43.1944 -70.6231 154° Southeast 435 501 28,400 -1,800 Descending Boston Center
07:27PM 43.0769 -70.5669 161° South 430 495 26,800 -1,560 Descending Boston Center
07:28PM 42.9656 -70.5106 160° South 430 495 25,300 -1,380 Descending Boston Center
07:29PM 42.8772 -70.4653 159° South 430 495 24,100 -1,440 Descending Boston Center
07:30PM 42.7511 -70.4042 160° South 430 495 22,500 -1,560 Descending Boston Center
07:31PM 42.6458 -70.3483 159° South 425 489 21,000 -1,320 Descending Boston Center
07:32PM 42.5450 -70.2983 160° South 411 473 19,900 -1,620 Descending Boston Center
07:33PM 42.4314 -70.2431 160° South 392 451 17,800 -1,920 Descending Boston Center
07:34PM 42.3325 -70.1961 161° South 392 451 16,100 -1,680 Descending Boston Center
07:35PM 42.2336 -70.1575 164° South 386 444 14,500 -1,560 Descending Boston Center
07:36PM 42.1372 -70.1386 172° South 369 425 13,000 -1,200 Descending Boston Center
07:37PM 42.0411 -70.1225 173° South 364 419 12,100 -960 Descending Boston Center
07:38PM 41.9469 -70.0981 169° South 353 406 11,100 -960 Descending Boston Center
07:39PM 41.8631 -70.0789 170° South 336 387 10,200 -1,320 Descending Boston Center
07:40PM 41.7878 -70.0622 171° South 320 368 8,500 -1,560 Descending Boston Center
07:41PM 41.7081 -70.0458 171° South 303 349 6,800 -1,620 Descending Boston Center
07:42PM 41.6200 -70.0242 170° South 284 327 5,000 -960 Descending Boston Center
07:43PM 41.5467 -70.0047 169° South 273 314 4,900 -840 Descending Boston Center
07:44PM 41.4756 -69.9881 170° South 273 314 3,400 -1,440 Descending Boston Center
07:45PM 41.4125 -69.9711 169° South 254 292 2,100 -960 Descending Boston Center
07:46PM 41.3517 -69.9542 168° South 238 274 1,500 -300 Descending Boston Center
07:47PM 41.3150 -69.9858 213° Southwest 185 213 1,500 -240 Level Boston Center
07:48PM 41.2989 -70.0086 227° Southwest 132 152 1,100 -540 Descending Boston Center
07:49PM 41.2744 -70.0428 226° Southwest 122 140 500 -360 Descending Boston Center
07:50PM 41.2439 -70.0714 215° Southwest 122 140 400 -120 Descending Boston Center
07:52PM 41.2500 -70.0500 37° Northeast  Level FlightAware Approximate